createdAt,value
2019-02-24T00:01:25.857Z,7.00
2019-02-24T00:03:52.262Z,8.33
2019-02-24T00:06:18.841Z,7.10
2019-02-24T00:08:45.315Z,7.60
2019-02-24T00:11:11.919Z,7.87
2019-02-24T00:13:38.392Z,7.57
2019-02-24T00:16:04.776Z,7.33
2019-02-24T00:18:31.153Z,8.00
2019-02-24T00:20:57.450Z,7.50
2019-02-24T00:23:23.974Z,8.67
2019-02-24T00:25:50.503Z,7.90
2019-02-24T00:28:16.989Z,7.80
2019-02-24T00:30:43.500Z,8.07
2019-02-24T00:33:10.001Z,8.07
2019-02-24T00:35:36.496Z,8.17
2019-02-24T00:38:03.191Z,8.53
2019-02-24T00:40:29.570Z,7.43
2019-02-24T00:42:56.069Z,8.43
2019-02-24T00:45:22.433Z,7.80
2019-02-24T00:47:48.797Z,8.13
2019-02-24T00:50:15.303Z,8.50
2019-02-24T00:52:41.717Z,8.33
2019-02-24T00:55:08.243Z,9.10
2019-02-24T00:57:34.728Z,8.33
2019-02-24T01:00:01.235Z,8.13
2019-02-24T01:02:27.705Z,9.97
2019-02-24T01:04:54.310Z,9.47
2019-02-24T01:07:20.875Z,10.23
2019-02-24T01:09:47.339Z,9.80
2019-02-24T01:12:13.717Z,10.03
2019-02-24T01:14:40.124Z,10.10
2019-02-24T01:17:06.728Z,9.70
2019-02-24T01:19:33.099Z,9.53
2019-02-24T01:21:59.720Z,11.17
2019-02-24T01:24:26.206Z,10.87
2019-02-24T01:26:52.911Z,10.13
2019-02-24T01:29:19.350Z,9.73
2019-02-24T01:31:45.848Z,10.20
2019-02-24T01:34:12.926Z,10.57
2019-02-24T01:36:39.296Z,11.80
2019-02-24T01:39:06.728Z,9.70
2019-02-24T01:41:33.077Z,11.40
2019-02-24T01:43:59.346Z,9.63
2019-02-24T01:46:25.819Z,11.63
2019-02-24T01:48:52.104Z,11.47
2019-02-24T01:51:18.753Z,10.30
2019-02-24T01:53:45.334Z,10.57
2019-02-24T01:56:11.938Z,10.57
2019-02-24T01:58:38.317Z,9.90
2019-02-24T02:01:04.847Z,11.37
2019-02-24T02:03:31.331Z,9.73
2019-02-24T02:05:57.721Z,10.87
2019-02-24T02:08:24.002Z,10.07
2019-02-24T02:10:50.399Z,9.30
2019-02-24T02:13:17.010Z,10.73
2019-02-24T02:15:43.526Z,10.23
2019-02-24T02:18:09.770Z,10.80
2019-02-24T02:20:36.246Z,9.63
2019-02-24T02:23:02.842Z,11.40
2019-02-24T02:25:29.270Z,10.73
2019-02-24T02:27:55.737Z,9.60
2019-02-24T02:30:22.112Z,12.47
2019-02-24T02:32:48.526Z,10.13
2019-02-24T02:35:15.118Z,10.37
2019-02-24T02:37:41.506Z,11.07
2019-02-24T02:40:08.096Z,10.77
2019-02-24T02:42:34.353Z,10.57
2019-02-24T02:45:00.871Z,10.07
2019-02-24T02:47:27.390Z,10.40
2019-02-24T02:49:53.866Z,10.37
2019-02-24T02:52:20.476Z,11.37
2019-02-24T02:54:46.877Z,11.60
2019-02-24T02:57:13.249Z,10.37
2019-02-24T02:59:39.814Z,11.57
2019-02-24T03:02:06.298Z,10.77
2019-02-24T03:04:32.815Z,11.53
2019-02-24T03:07:03.750Z,10.83
2019-02-24T03:09:30.235Z,11.97
2019-02-24T03:11:56.802Z,11.50
2019-02-24T03:14:23.515Z,11.57
2019-02-24T03:16:49.893Z,11.10
2019-02-24T03:19:16.330Z,11.57
2019-02-24T03:21:42.748Z,11.33
2019-02-24T03:24:09.306Z,11.70
2019-02-24T03:26:39.735Z,11.70
2019-02-24T03:29:06.210Z,12.17
2019-02-24T03:31:32.775Z,12.47
2019-02-24T03:33:59.289Z,11.43
2019-02-24T03:36:25.798Z,12.00
2019-02-24T03:38:52.086Z,12.53
2019-02-24T03:41:18.554Z,12.67
2019-02-24T03:43:45.039Z,11.50
2019-02-24T03:46:11.509Z,11.70
2019-02-24T03:48:37.934Z,13.93
2019-02-24T03:51:04.348Z,12.00
2019-02-24T03:53:30.741Z,12.70
2019-02-24T03:55:57.707Z,12.93
2019-02-24T03:58:26.006Z,12.83
2019-02-24T04:00:52.618Z,13.00
2019-02-24T04:03:19.000Z,12.90
2019-02-24T04:05:45.469Z,13.30
2019-02-24T04:08:11.969Z,12.30
2019-02-24T04:10:38.222Z,12.50
2019-02-24T04:13:04.705Z,12.47
2019-02-24T04:15:31.203Z,13.37
2019-02-24T04:17:57.580Z,12.47
2019-02-24T04:20:23.978Z,13.13
2019-02-24T04:22:50.391Z,13.77
2019-02-24T04:25:16.815Z,14.17
2019-02-24T04:27:43.329Z,13.63
2019-02-24T04:30:09.840Z,14.10
2019-02-24T04:32:36.204Z,13.30
2019-02-24T04:35:02.970Z,13.03
2019-02-24T04:37:29.374Z,13.00
2019-02-24T04:39:55.729Z,14.10
2019-02-24T04:42:22.019Z,12.67
2019-02-24T04:44:48.403Z,13.17
2019-02-24T04:47:14.876Z,13.87
2019-02-24T04:49:41.442Z,13.20
2019-02-24T04:52:07.973Z,13.60
2019-02-24T04:54:34.225Z,13.97
2019-02-24T04:57:00.877Z,13.50
2019-02-24T04:59:34.813Z,13.70
2019-02-24T05:01:55.659Z,14.07
2019-02-24T05:04:22.015Z,13.53
2019-02-24T05:06:48.263Z,13.90
2019-02-24T05:09:14.657Z,12.57
2019-02-24T05:11:41.029Z,12.23
2019-02-24T05:14:07.554Z,12.97
2019-02-24T05:16:33.946Z,13.57
2019-02-24T05:19:00.306Z,13.83
2019-02-24T05:21:29.323Z,14.20
2019-02-24T05:23:55.824Z,13.43
2019-02-24T05:26:22.354Z,14.50
2019-02-24T05:28:48.723Z,15.30
2019-02-24T05:31:15.249Z,14.67
2019-02-24T05:33:41.668Z,16.07
2019-02-24T05:36:08.097Z,14.97
2019-02-24T05:38:34.618Z,14.00
2019-02-24T05:41:01.143Z,14.80
2019-02-24T05:43:27.513Z,15.30
2019-02-24T05:45:53.894Z,14.67
2019-02-24T05:48:20.367Z,16.80
2019-02-24T05:50:46.888Z,14.97
2019-02-24T05:53:13.433Z,17.43
2019-02-24T05:55:39.927Z,16.03
2019-02-24T05:58:06.410Z,15.37
2019-02-24T06:00:32.893Z,15.93
2019-02-24T06:02:59.324Z,17.03
2019-02-24T06:05:26.467Z,16.77
2019-02-24T06:07:53.061Z,15.90
2019-02-24T06:10:19.711Z,16.43
2019-02-24T06:12:46.356Z,16.37
2019-02-24T06:15:12.846Z,16.37
2019-02-24T06:17:39.244Z,18.80
2019-02-24T06:20:05.751Z,17.37
2019-02-24T06:22:32.251Z,16.57
2019-02-24T06:24:58.547Z,17.07
2019-02-24T06:27:25.050Z,16.70
2019-02-24T06:29:51.560Z,17.33
2019-02-24T06:32:18.041Z,17.57
2019-02-24T06:34:44.526Z,17.73
2019-02-24T06:37:11.029Z,19.37
2019-02-24T06:39:37.502Z,17.80
2019-02-24T06:42:03.994Z,17.63
2019-02-24T06:44:30.644Z,17.23
2019-02-24T06:46:58.335Z,18.73
2019-02-24T06:49:24.746Z,19.07
2019-02-24T06:51:51.130Z,17.57
2019-02-24T06:54:17.651Z,18.00
2019-02-24T06:56:44.043Z,16.87
2019-02-24T06:59:10.517Z,18.57
2019-02-24T07:01:36.820Z,19.67
2019-02-24T07:04:03.078Z,18.23
2019-02-24T07:06:29.533Z,19.13
2019-02-24T07:08:55.910Z,20.13
2019-02-24T07:11:22.510Z,18.87
2019-02-24T07:13:48.969Z,19.63
2019-02-24T07:16:15.287Z,21.63
2019-02-24T07:18:41.703Z,19.10
2019-02-24T07:21:08.181Z,20.60
2019-02-24T07:23:34.459Z,21.10
2019-02-24T07:26:01.041Z,20.20
2019-02-24T07:28:27.524Z,21.97
2019-02-24T07:30:53.953Z,18.77
2019-02-24T07:33:20.351Z,19.00
2019-02-24T07:35:46.949Z,19.67
2019-02-24T07:38:13.275Z,20.67
2019-02-24T07:40:39.742Z,19.53
2019-02-24T07:43:06.236Z,20.33
2019-02-24T07:45:32.765Z,19.63
2019-02-24T07:47:59.284Z,20.67
2019-02-24T07:50:25.821Z,20.80
2019-02-24T07:52:52.327Z,20.50
2019-02-24T07:55:18.805Z,19.00
2019-02-24T07:57:45.265Z,20.13
2019-02-24T08:00:11.765Z,19.80
2019-02-24T08:02:38.312Z,20.23
2019-02-24T08:05:06.414Z,18.23
2019-02-24T08:07:32.707Z,19.10
2019-02-24T08:09:59.030Z,21.67
2019-02-24T08:12:25.431Z,18.57
2019-02-24T08:14:52.046Z,20.40
2019-02-24T08:17:18.526Z,19.10
2019-02-24T08:19:45.266Z,19.00
2019-02-24T08:22:11.835Z,19.07
2019-02-24T08:24:38.359Z,17.73
2019-02-24T08:27:05.130Z,16.83
2019-02-24T08:29:31.411Z,16.83
2019-02-24T08:31:57.972Z,17.23
2019-02-24T08:34:24.538Z,19.90
2019-02-24T08:36:51.137Z,16.17
2019-02-24T08:39:17.694Z,17.13
2019-02-24T08:41:44.292Z,16.60
2019-02-24T08:44:12.817Z,16.33
2019-02-24T08:46:39.441Z,17.07
2019-02-24T08:49:05.936Z,16.87
2019-02-24T08:51:32.408Z,16.43
2019-02-24T08:53:59.069Z,15.93
2019-02-24T08:56:25.490Z,15.13
2019-02-24T08:58:52.051Z,15.30
2019-02-24T09:01:18.527Z,15.80
2019-02-24T09:03:45.067Z,14.63
2019-02-24T09:06:11.600Z,16.37
2019-02-24T09:08:38.062Z,14.07
2019-02-24T09:11:04.547Z,15.07
2019-02-24T09:13:31.170Z,15.00
2019-02-24T09:15:57.704Z,14.13
2019-02-24T09:18:24.103Z,14.93
2019-02-24T09:20:50.695Z,13.97
2019-02-24T09:23:17.194Z,13.80
2019-02-24T09:25:43.666Z,13.40
2019-02-24T09:28:10.083Z,14.80
2019-02-24T09:30:36.583Z,13.50
2019-02-24T09:33:03.047Z,13.60
2019-02-24T09:35:29.642Z,14.50
2019-02-24T09:37:56.132Z,13.03
2019-02-24T09:40:22.605Z,14.47
2019-02-24T09:42:49.138Z,14.37
2019-02-24T09:45:15.580Z,13.00
2019-02-24T09:47:46.840Z,13.63
2019-02-24T09:50:10.406Z,13.43
2019-02-24T09:52:36.875Z,12.97
2019-02-24T09:55:05.402Z,13.97
2019-02-24T09:57:31.845Z,12.53
2019-02-24T09:59:58.238Z,14.10
2019-02-24T10:02:24.681Z,14.10
2019-02-24T10:04:51.353Z,13.90
2019-02-24T10:07:17.711Z,13.57
2019-02-24T10:09:44.281Z,13.20
2019-02-24T10:12:10.701Z,14.03
2019-02-24T10:14:37.205Z,13.83
2019-02-24T10:17:03.798Z,13.27
2019-02-24T10:19:31.292Z,13.73
2019-02-24T10:21:57.802Z,14.60
2019-02-24T10:24:24.262Z,13.63
2019-02-24T10:26:50.870Z,13.97
2019-02-24T10:29:17.482Z,12.50
2019-02-24T10:31:44.086Z,13.60
2019-02-24T10:34:10.972Z,12.50
2019-02-24T10:36:37.449Z,14.87
2019-02-24T10:39:04.466Z,14.40
2019-02-24T10:41:30.950Z,12.70
2019-02-24T10:43:57.345Z,14.23
2019-02-24T10:46:23.865Z,11.70
2019-02-24T10:48:50.347Z,13.23
2019-02-24T10:51:16.938Z,12.77
2019-02-24T10:53:43.275Z,11.87
2019-02-24T10:56:09.704Z,12.23
2019-02-24T10:58:36.216Z,12.33
2019-02-24T11:01:02.803Z,11.40
2019-02-24T11:03:29.637Z,13.07
2019-02-24T11:05:56.349Z,12.70
2019-02-24T11:08:22.834Z,11.70
2019-02-24T11:10:49.404Z,11.17
2019-02-24T11:13:15.706Z,12.03
2019-02-24T11:15:42.333Z,11.03
2019-02-24T11:18:08.707Z,11.70
2019-02-24T11:20:35.226Z,10.70
2019-02-24T11:23:01.611Z,11.30
2019-02-24T11:25:28.006Z,11.37
2019-02-24T11:27:54.747Z,9.80
2019-02-24T11:30:21.301Z,9.57
2019-02-24T11:32:47.699Z,9.93
2019-02-24T11:35:14.174Z,9.70
2019-02-24T11:37:40.609Z,9.60
2019-02-24T11:40:11.768Z,10.17
2019-02-24T11:42:38.103Z,9.17
2019-02-24T11:45:06.443Z,10.07
2019-02-24T11:47:32.993Z,9.30
2019-02-24T11:50:01.339Z,8.93
2019-02-24T11:52:27.829Z,8.60
2019-02-24T11:54:54.316Z,8.80
2019-02-24T11:57:20.606Z,9.17
2019-02-24T11:59:47.073Z,7.63
2019-02-24T12:02:13.923Z,8.80
2019-02-24T12:04:40.401Z,8.90
2019-02-24T12:07:08.668Z,7.10
2019-02-24T12:09:36.163Z,8.20
2019-02-24T12:12:02.891Z,8.87
2019-02-24T12:14:29.165Z,8.60
2019-02-24T12:16:55.449Z,7.60
2019-02-24T12:19:21.938Z,8.13
2019-02-24T12:21:48.500Z,8.10
2019-02-24T12:24:15.083Z,7.07
2019-02-24T12:26:41.643Z,7.37
2019-02-24T12:29:08.180Z,7.10
2019-02-24T12:31:34.566Z,7.80
2019-02-24T12:34:01.056Z,7.10
2019-02-24T12:36:27.547Z,7.90
2019-02-24T12:38:53.902Z,7.63
2019-02-24T12:41:20.522Z,7.10
2019-02-24T12:43:46.988Z,6.93
2019-02-24T12:46:13.439Z,6.40
2019-02-24T12:48:39.860Z,6.80
2019-02-24T12:51:06.219Z,7.20
2019-02-24T12:53:32.653Z,6.77
2019-02-24T12:55:59.115Z,7.47
2019-02-24T12:58:25.707Z,6.60
2019-02-24T13:00:53.940Z,6.47
2019-02-24T13:03:23.983Z,6.10
2019-02-24T13:05:48.687Z,5.97
2019-02-24T13:08:15.138Z,6.13
2019-02-24T13:10:41.623Z,5.97
2019-02-24T13:13:08.238Z,5.27
2019-02-24T13:15:34.656Z,5.33
2019-02-24T13:18:01.255Z,6.53
2019-02-24T13:20:27.762Z,5.03
2019-02-24T13:22:54.286Z,5.63
2019-02-24T13:25:22.583Z,5.60
2019-02-24T13:27:49.242Z,5.73
2019-02-24T13:30:15.805Z,5.10
2019-02-24T13:32:42.389Z,5.60
2019-02-24T13:35:10.353Z,5.13
2019-02-24T13:37:36.945Z,5.37
2019-02-24T13:40:09.062Z,5.17
2019-02-24T13:42:35.457Z,5.40
2019-02-24T13:45:02.042Z,4.80
2019-02-24T13:47:28.292Z,4.60
2019-02-24T13:49:55.068Z,5.23
2019-02-24T13:52:23.773Z,4.80
2019-02-24T13:54:50.222Z,4.50
2019-02-24T13:57:16.818Z,4.70
2019-02-24T13:59:43.332Z,4.70
2019-02-24T14:02:09.942Z,5.30
2019-02-24T14:04:36.449Z,4.60
2019-02-24T14:07:03.021Z,4.43
2019-02-24T14:09:29.496Z,4.30
2019-02-24T14:11:56.241Z,4.83
2019-02-24T14:14:22.621Z,4.70
2019-02-24T14:16:49.186Z,4.43
2019-02-24T14:19:15.681Z,5.33
2019-02-24T14:21:42.201Z,4.80
2019-02-24T14:24:08.691Z,4.17
2019-02-24T14:26:35.205Z,5.37
2019-02-24T14:29:01.719Z,4.50
2019-02-24T14:31:28.107Z,3.93
2019-02-24T14:33:54.504Z,4.47
2019-02-24T14:36:21.004Z,4.43
2019-02-24T14:38:47.406Z,4.60
2019-02-24T14:41:13.980Z,4.83
2019-02-24T14:43:40.463Z,3.73
2019-02-24T14:46:07.069Z,3.67
2019-02-24T14:48:33.900Z,4.67
2019-02-24T14:51:00.300Z,4.80
2019-02-24T14:53:26.895Z,3.53
2019-02-24T14:55:53.623Z,4.40
2019-02-24T14:58:20.150Z,4.17
2019-02-24T15:00:47.680Z,4.00
2019-02-24T15:03:14.268Z,4.37
2019-02-24T15:05:42.711Z,4.07
2019-02-24T15:08:09.255Z,3.77
2019-02-24T15:10:35.982Z,3.37
2019-02-24T15:13:02.475Z,3.93
2019-02-24T15:15:33.669Z,3.47
2019-02-24T15:18:00.024Z,3.60
2019-02-24T15:20:26.606Z,3.70
2019-02-24T15:22:53.085Z,3.37
2019-02-24T15:25:19.704Z,4.10
2019-02-24T15:27:46.177Z,3.67
2019-02-24T15:30:19.170Z,3.50
2019-02-24T15:32:51.358Z,4.10
2019-02-24T15:35:13.938Z,3.73
2019-02-24T15:37:40.445Z,4.33
2019-02-24T15:40:08.764Z,4.00
2019-02-24T15:42:35.260Z,7.37
2019-02-24T15:45:01.646Z,4.20
2019-02-24T15:47:28.032Z,4.50
2019-02-24T15:49:54.489Z,4.63
2019-02-24T15:52:20.893Z,3.90
2019-02-24T15:54:47.178Z,4.20
2019-02-24T15:57:13.889Z,4.00
2019-02-24T15:59:40.338Z,4.10
2019-02-24T16:02:06.961Z,4.57
2019-02-24T16:04:33.642Z,4.23
2019-02-24T16:07:00.126Z,4.73
2019-02-24T16:09:26.693Z,3.93
2019-02-24T16:11:53.181Z,3.60
2019-02-24T16:14:19.585Z,4.33
2019-02-24T16:16:45.962Z,4.00
2019-02-24T16:19:12.564Z,3.93
2019-02-24T16:21:39.469Z,4.27
2019-02-24T16:24:06.212Z,3.93
2019-02-24T16:26:32.651Z,3.87
2019-02-24T16:28:59.154Z,3.97
2019-02-24T16:31:25.807Z,4.13
2019-02-24T16:33:52.167Z,3.93
2019-02-24T16:36:18.887Z,3.90
2019-02-24T16:38:45.444Z,3.90
2019-02-24T16:41:12.098Z,4.23
2019-02-24T16:43:38.674Z,3.63
2019-02-24T16:46:05.026Z,3.70
2019-02-24T16:48:31.502Z,3.77
2019-02-24T16:50:58.208Z,4.40
2019-02-24T16:53:24.890Z,4.57
2019-02-24T16:55:51.288Z,4.13
2019-02-24T16:58:17.983Z,4.13
2019-02-24T17:00:45.124Z,4.70
2019-02-24T17:03:19.647Z,3.93
2019-02-24T17:05:40.206Z,5.27
2019-02-24T17:08:06.754Z,4.70
2019-02-24T17:10:33.254Z,5.20
2019-02-24T17:13:01.624Z,5.37
2019-02-24T17:15:28.122Z,4.70
2019-02-24T17:17:54.560Z,4.30
2019-02-24T17:20:22.523Z,5.37
2019-02-24T17:22:49.019Z,5.53
2019-02-24T17:25:15.503Z,4.87
2019-02-24T17:27:41.878Z,4.03
2019-02-24T17:30:13.106Z,4.57
2019-02-24T17:32:39.460Z,4.60
2019-02-24T17:35:06.460Z,5.60
2019-02-24T17:37:32.854Z,4.53
2019-02-24T17:39:59.426Z,4.57
2019-02-24T17:42:25.974Z,4.43
2019-02-24T17:44:52.556Z,4.47
2019-02-24T17:47:21.446Z,4.43
2019-02-24T17:49:47.976Z,5.10
2019-02-24T17:52:14.488Z,5.50
2019-02-24T17:54:40.895Z,4.87
2019-02-24T17:57:07.285Z,5.10
2019-02-24T17:59:40.253Z,4.83
2019-02-24T18:02:02.075Z,3.83
2019-02-24T18:04:28.484Z,4.03
2019-02-24T18:06:54.884Z,4.70
2019-02-24T18:09:21.469Z,4.53
2019-02-24T18:11:47.834Z,3.77
2019-02-24T18:14:14.364Z,4.23
2019-02-24T18:16:40.951Z,4.43
2019-02-24T18:19:07.509Z,3.80
2019-02-24T18:21:33.969Z,3.80
2019-02-24T18:24:00.576Z,4.50
2019-02-24T18:26:27.044Z,4.17
2019-02-24T18:28:53.816Z,3.83
2019-02-24T18:31:20.217Z,3.53
2019-02-24T18:33:48.586Z,3.83
2019-02-24T18:36:14.816Z,3.60
2019-02-24T18:38:41.302Z,4.13
2019-02-24T18:41:08.102Z,4.37
2019-02-24T18:43:34.642Z,3.70
2019-02-24T18:46:01.176Z,3.30
2019-02-24T18:48:27.982Z,3.70
2019-02-24T18:50:54.788Z,4.00
2019-02-24T18:53:21.452Z,2.97
2019-02-24T18:55:47.783Z,4.20
2019-02-24T18:58:14.408Z,3.57
2019-02-24T19:00:40.922Z,3.47
2019-02-24T19:03:07.395Z,3.33
2019-02-24T19:05:33.882Z,3.63
2019-02-24T19:08:00.385Z,3.53
2019-02-24T19:10:26.878Z,3.80
2019-02-24T19:12:53.413Z,3.43
2019-02-24T19:15:21.398Z,3.03
2019-02-24T19:17:47.832Z,3.40
2019-02-24T19:20:16.296Z,4.10
2019-02-24T19:22:43.089Z,2.80
2019-02-24T19:25:10.373Z,5.17
2019-02-24T19:27:36.896Z,3.23
2019-02-24T19:30:12.055Z,3.90
2019-02-24T19:32:38.678Z,3.53
2019-02-24T19:35:06.914Z,2.73
2019-02-24T19:37:33.450Z,4.40
2019-02-24T19:39:59.946Z,2.93
2019-02-24T19:42:26.537Z,2.87
2019-02-24T19:44:53.048Z,3.03
2019-02-24T19:47:19.535Z,3.17
2019-02-24T19:49:46.039Z,3.27
2019-02-24T19:52:12.538Z,3.73
2019-02-24T19:54:39.032Z,4.90
2019-02-24T19:57:05.500Z,3.70
2019-02-24T19:59:33.935Z,3.70
2019-02-24T20:02:00.252Z,3.30
2019-02-24T20:04:26.723Z,3.43
2019-02-24T20:06:53.353Z,3.67
2019-02-24T20:09:22.097Z,3.23
2019-02-24T20:11:48.546Z,3.20
2019-02-24T20:14:15.008Z,3.73
2019-02-24T20:16:41.502Z,3.73
2019-02-24T20:19:08.102Z,2.93
2019-02-24T20:21:34.819Z,2.97
2019-02-24T20:24:01.238Z,4.00
2019-02-24T20:26:29.099Z,3.27
2019-02-24T20:28:55.630Z,3.10
2019-02-24T20:31:22.109Z,3.47
2019-02-24T20:33:48.774Z,3.87
2019-02-24T20:36:15.367Z,3.60
2019-02-24T20:38:41.791Z,3.67
2019-02-24T20:41:08.260Z,3.97
2019-02-24T20:43:35.093Z,3.57
2019-02-24T20:46:01.696Z,3.87
2019-02-24T20:48:28.274Z,3.43
2019-02-24T20:50:54.802Z,3.50
2019-02-24T20:53:21.260Z,3.30
2019-02-24T20:55:47.901Z,4.07
2019-02-24T20:58:14.409Z,3.77
2019-02-24T21:00:46.360Z,3.50
2019-02-24T21:03:12.910Z,4.00
2019-02-24T21:05:39.400Z,3.87
2019-02-24T21:08:07.891Z,3.20
2019-02-24T21:10:34.174Z,3.33
2019-02-24T21:13:00.722Z,3.40
2019-02-24T21:15:27.191Z,3.40
2019-02-24T21:17:53.652Z,3.40
2019-02-24T21:20:27.338Z,3.83
2019-02-24T21:22:53.915Z,3.20
2019-02-24T21:25:20.392Z,3.63
2019-02-24T21:27:47.018Z,3.47
2019-02-24T21:30:15.288Z,3.33
2019-02-24T21:32:42.839Z,3.53
2019-02-24T21:35:10.321Z,3.70
2019-02-24T21:37:36.863Z,3.33
2019-02-24T21:40:12.038Z,3.63
2019-02-24T21:42:38.618Z,3.20
2019-02-24T21:45:08.317Z,3.07
2019-02-24T21:47:34.978Z,3.27
2019-02-24T21:50:01.441Z,3.47
2019-02-24T21:52:28.020Z,2.60
2019-02-24T21:54:54.540Z,2.60
2019-02-24T21:57:21.182Z,2.80
2019-02-24T21:59:47.663Z,2.90
2019-02-24T22:02:14.060Z,2.80
2019-02-24T22:04:40.626Z,2.73
2019-02-24T22:07:07.024Z,2.60
2019-02-24T22:09:33.268Z,2.33
2019-02-24T22:11:59.906Z,3.37
2019-02-24T22:14:26.439Z,2.80
2019-02-24T22:16:53.025Z,3.10
2019-02-24T22:19:19.682Z,2.57
2019-02-24T22:21:46.201Z,3.50
2019-02-24T22:24:12.727Z,2.60
2019-02-24T22:26:39.364Z,2.87
2019-02-24T22:29:05.870Z,3.27
2019-02-24T22:31:32.495Z,2.10
2019-02-24T22:33:58.994Z,2.70
2019-02-24T22:36:25.503Z,2.43
2019-02-24T22:38:52.023Z,2.90
2019-02-24T22:41:18.481Z,2.70
2019-02-24T22:43:44.828Z,2.80
2019-02-24T22:46:11.347Z,2.77
2019-02-24T22:48:37.888Z,2.50
2019-02-24T22:51:04.489Z,2.97
2019-02-24T22:53:31.079Z,3.07
2019-02-24T22:55:57.835Z,2.00
2019-02-24T22:58:24.185Z,2.80
2019-02-24T23:00:55.154Z,2.97
2019-02-24T23:03:24.355Z,3.20
2019-02-24T23:05:50.962Z,2.53
2019-02-24T23:08:17.478Z,2.30
2019-02-24T23:10:44.066Z,2.90
2019-02-24T23:13:10.445Z,2.50
2019-02-24T23:15:39.078Z,2.67
2019-02-24T23:18:05.561Z,2.70
2019-02-24T23:20:32.172Z,3.93
2019-02-24T23:22:59.486Z,2.93
2019-02-24T23:25:26.080Z,3.03
2019-02-24T23:27:52.577Z,3.60
2019-02-24T23:30:18.934Z,2.97
2019-02-24T23:32:45.388Z,3.53
2019-02-24T23:35:11.897Z,2.87
2019-02-24T23:37:38.278Z,3.17
2019-02-24T23:40:07.153Z,2.70
2019-02-24T23:42:33.528Z,2.83
2019-02-24T23:45:09.537Z,2.80
2019-02-24T23:47:28.320Z,2.93
2019-02-24T23:49:54.705Z,2.77
2019-02-24T23:52:21.314Z,2.80
2019-02-24T23:54:47.778Z,2.83
2019-02-24T23:57:14.363Z,2.63
2019-02-24T23:59:40.902Z,3.40
